sensor_id;sensor_type;location;lat;lon;timestamp;P1;durP1;ratioP1;P2;durP2;ratioP2
4519;SDS011;2272;49.226;8.108;2022-07-29T00:00:37;8.40;;;2.30;;
4519;SDS011;2272;49.226;8.108;2022-07-29T00:03:04;3.33;;;2.80;;
4519;SDS011;2272;49.226;8.108;2022-07-29T00:05:30;7.90;;;3.07;;
4519;SDS011;2272;49.226;8.108;2022-07-29T00:07:57;4.93;;;2.67;;
4519;SDS011;2272;49.226;8.108;2022-07-29T00:10:24;6.97;;;2.90;;
4519;SDS011;2272;49.226;8.108;2022-07-29T00:12:52;3.53;;;2.80;;
4519;SDS011;2272;49.226;8.108;2022-07-29T00:15:18;8.77;;;3.37;;
4519;SDS011;2272;49.226;8.108;2022-07-29T00:17:45;7.20;;;2.60;;
4519;SDS011;2272;49.226;8.108;2022-07-29T00:20:12;4.77;;;2.97;;
4519;SDS011;2272;49.226;8.108;2022-07-29T00:22:38;2.80;;;2.60;;
4519;SDS011;2272;49.226;8.108;2022-07-29T00:25:06;18.50;;;4.27;;
4519;SDS011;2272;49.226;8.108;2022-07-29T00:27:33;3.13;;;2.50;;
4519;SDS011;2272;49.226;8.108;2022-07-29T00:30:02;3.27;;;2.37;;
4519;SDS011;2272;49.226;8.108;2022-07-29T00:32:29;4.33;;;2.90;;
4519;SDS011;2272;49.226;8.108;2022-07-29T00:34:56;4.00;;;3.00;;
4519;SDS011;2272;49.226;8.108;2022-07-29T00:37:40;8.10;;;3.30;;
4519;SDS011;2272;49.226;8.108;2022-07-29T00:40:07;2.63;;;2.50;;
4519;SDS011;2272;49.226;8.108;2022-07-29T00:42:41;5.93;;;2.40;;
4519;SDS011;2272;49.226;8.108;2022-07-29T00:45:10;6.40;;;3.37;;
4519;SDS011;2272;49.226;8.108;2022-07-29T00:47:37;4.80;;;3.00;;
4519;SDS011;2272;49.226;8.108;2022-07-29T00:50:04;3.23;;;2.93;;
4519;SDS011;2272;49.226;8.108;2022-07-29T00:52:32;18.23;;;3.87;;
4519;SDS011;2272;49.226;8.108;2022-07-29T00:54:59;3.47;;;2.80;;
4519;SDS011;2272;49.226;8.108;2022-07-29T00:57:26;7.80;;;3.30;;
4519;SDS011;2272;49.226;8.108;2022-07-29T00:59:53;6.50;;;2.93;;
4519;SDS011;2272;49.226;8.108;2022-07-29T01:02:21;4.17;;;3.40;;
4519;SDS011;2272;49.226;8.108;2022-07-29T01:04:47;38.37;;;3.67;;
4519;SDS011;2272;49.226;8.108;2022-07-29T01:07:15;8.20;;;3.30;;
4519;SDS011;2272;49.226;8.108;2022-07-29T01:09:42;3.73;;;3.00;;
4519;SDS011;2272;49.226;8.108;2022-07-29T01:12:11;6.17;;;3.07;;
4519;SDS011;2272;49.226;8.108;2022-07-29T01:14:40;8.23;;;4.07;;
4519;SDS011;2272;49.226;8.108;2022-07-29T01:17:09;11.80;;;3.10;;
4519;SDS011;2272;49.226;8.108;2022-07-29T01:19:52;9.77;;;3.53;;
4519;SDS011;2272;49.226;8.108;2022-07-29T01:25:23;6.20;;;2.67;;
4519;SDS011;2272;49.226;8.108;2022-07-29T01:28:08;3.27;;;2.97;;
4519;SDS011;2272;49.226;8.108;2022-07-29T01:30:47;5.00;;;3.30;;
4519;SDS011;2272;49.226;8.108;2022-07-29T01:33:17;10.77;;;3.93;;
4519;SDS011;2272;49.226;8.108;2022-07-29T01:36:01;10.60;;;3.23;;
4519;SDS011;2272;49.226;8.108;2022-07-29T01:38:33;3.47;;;3.17;;
4519;SDS011;2272;49.226;8.108;2022-07-29T01:41:05;5.33;;;3.50;;
4519;SDS011;2272;49.226;8.108;2022-07-29T01:43:36;3.77;;;3.47;;
4519;SDS011;2272;49.226;8.108;2022-07-29T01:46:09;5.67;;;3.10;;
4519;SDS011;2272;49.226;8.108;2022-07-29T01:48:42;5.37;;;3.10;;
4519;SDS011;2272;49.226;8.108;2022-07-29T01:51:14;8.10;;;3.47;;
4519;SDS011;2272;49.226;8.108;2022-07-29T01:53:46;3.80;;;3.43;;
4519;SDS011;2272;49.226;8.108;2022-07-29T01:56:18;5.77;;;3.70;;
4519;SDS011;2272;49.226;8.108;2022-07-29T01:58:48;3.37;;;3.07;;
4519;SDS011;2272;49.226;8.108;2022-07-29T02:01:19;3.03;;;2.87;;
4519;SDS011;2272;49.226;8.108;2022-07-29T02:03:48;3.43;;;2.97;;
4519;SDS011;2272;49.226;8.108;2022-07-29T02:06:17;3.57;;;2.90;;
4519;SDS011;2272;49.226;8.108;2022-07-29T02:08:46;11.73;;;3.93;;
4519;SDS011;2272;49.226;8.108;2022-07-29T02:11:15;6.30;;;3.33;;
4519;SDS011;2272;49.226;8.108;2022-07-29T02:13:42;6.30;;;3.87;;
4519;SDS011;2272;49.226;8.108;2022-07-29T02:16:10;6.10;;;4.00;;
4519;SDS011;2272;49.226;8.108;2022-07-29T02:18:39;5.80;;;3.13;;
4519;SDS011;2272;49.226;8.108;2022-07-29T02:21:08;5.00;;;3.53;;
4519;SDS011;2272;49.226;8.108;2022-07-29T02:23:35;4.07;;;3.70;;
4519;SDS011;2272;49.226;8.108;2022-07-29T02:26:04;11.43;;;4.00;;
4519;SDS011;2272;49.226;8.108;2022-07-29T02:28:33;8.80;;;3.57;;
4519;SDS011;2272;49.226;8.108;2022-07-29T02:31:01;11.83;;;3.90;;
4519;SDS011;2272;49.226;8.108;2022-07-29T02:33:29;6.77;;;3.77;;
4519;SDS011;2272;49.226;8.108;2022-07-29T02:35:58;8.83;;;3.40;;
4519;SDS011;2272;49.226;8.108;2022-07-29T02:38:27;6.53;;;3.70;;
4519;SDS011;2272;49.226;8.108;2022-07-29T02:41:09;12.30;;;3.40;;
4519;SDS011;2272;49.226;8.108;2022-07-29T02:43:38;3.47;;;3.00;;
4519;SDS011;2272;49.226;8.108;2022-07-29T02:46:08;3.77;;;3.37;;
4519;SDS011;2272;49.226;8.108;2022-07-29T02:48:41;3.93;;;2.93;;
4519;SDS011;2272;49.226;8.108;2022-07-29T02:51:16;6.47;;;3.33;;
4519;SDS011;2272;49.226;8.108;2022-07-29T02:53:49;3.20;;;3.00;;
4519;SDS011;2272;49.226;8.108;2022-07-29T02:56:19;5.17;;;3.30;;
4519;SDS011;2272;49.226;8.108;2022-07-29T02:58:53;8.63;;;5.63;;
4519;SDS011;2272;49.226;8.108;2022-07-29T03:01:22;4.33;;;3.60;;
4519;SDS011;2272;49.226;8.108;2022-07-29T03:03:50;7.23;;;3.73;;
4519;SDS011;2272;49.226;8.108;2022-07-29T03:06:21;5.50;;;3.37;;
4519;SDS011;2272;49.226;8.108;2022-07-29T03:08:49;3.87;;;3.57;;
4519;SDS011;2272;49.226;8.108;2022-07-29T03:11:17;5.70;;;3.67;;
4519;SDS011;2272;49.226;8.108;2022-07-29T03:13:44;3.30;;;3.00;;
4519;SDS011;2272;49.226;8.108;2022-07-29T03:16:11;4.07;;;2.87;;
4519;SDS011;2272;49.226;8.108;2022-07-29T03:18:39;3.17;;;2.97;;
4519;SDS011;2272;49.226;8.108;2022-07-29T03:21:06;5.70;;;2.73;;
4519;SDS011;2272;49.226;8.108;2022-07-29T03:23:35;3.03;;;2.73;;
4519;SDS011;2272;49.226;8.108;2022-07-29T03:26:02;4.20;;;3.10;;
4519;SDS011;2272;49.226;8.108;2022-07-29T03:28:29;5.00;;;3.57;;
4519;SDS011;2272;49.226;8.108;2022-07-29T03:30:55;5.93;;;3.07;;
4519;SDS011;2272;49.226;8.108;2022-07-29T03:33:22;3.50;;;3.20;;
4519;SDS011;2272;49.226;8.108;2022-07-29T03:35:49;3.20;;;2.90;;
4519;SDS011;2272;49.226;8.108;2022-07-29T03:38:15;3.33;;;3.10;;
4519;SDS011;2272;49.226;8.108;2022-07-29T03:40:44;3.03;;;2.73;;
4519;SDS011;2272;49.226;8.108;2022-07-29T03:43:14;4.83;;;3.60;;
4519;SDS011;2272;49.226;8.108;2022-07-29T03:45:43;3.97;;;3.20;;
4519;SDS011;2272;49.226;8.108;2022-07-29T03:48:14;4.10;;;3.40;;
4519;SDS011;2272;49.226;8.108;2022-07-29T03:50:43;3.80;;;3.50;;
4519;SDS011;2272;49.226;8.108;2022-07-29T03:53:11;2.97;;;2.73;;
4519;SDS011;2272;49.226;8.108;2022-07-29T03:55:40;3.90;;;3.60;;
4519;SDS011;2272;49.226;8.108;2022-07-29T03:58:10;4.37;;;3.60;;
4519;SDS011;2272;49.226;8.108;2022-07-29T04:00:38;3.57;;;3.27;;
4519;SDS011;2272;49.226;8.108;2022-07-29T04:03:08;3.57;;;3.00;;
4519;SDS011;2272;49.226;8.108;2022-07-29T04:05:35;3.73;;;3.20;;
4519;SDS011;2272;49.226;8.108;2022-07-29T04:08:02;3.57;;;3.30;;
4519;SDS011;2272;49.226;8.108;2022-07-29T04:10:28;8.23;;;3.83;;
4519;SDS011;2272;49.226;8.108;2022-07-29T04:12:55;13.60;;;3.70;;
4519;SDS011;2272;49.226;8.108;2022-07-29T04:15:23;4.50;;;3.33;;
4519;SDS011;2272;49.226;8.108;2022-07-29T04:17:50;5.17;;;3.30;;
4519;SDS011;2272;49.226;8.108;2022-07-29T04:20:17;4.13;;;3.43;;
4519;SDS011;2272;49.226;8.108;2022-07-29T04:22:44;5.03;;;4.00;;
4519;SDS011;2272;49.226;8.108;2022-07-29T04:25:10;4.30;;;3.70;;
4519;SDS011;2272;49.226;8.108;2022-07-29T04:27:37;4.57;;;3.70;;
4519;SDS011;2272;49.226;8.108;2022-07-29T04:30:25;5.97;;;3.70;;
4519;SDS011;2272;49.226;8.108;2022-07-29T04:32:52;6.10;;;4.80;;
4519;SDS011;2272;49.226;8.108;2022-07-29T04:35:19;3.90;;;3.60;;
4519;SDS011;2272;49.226;8.108;2022-07-29T04:37:46;4.60;;;3.93;;
4519;SDS011;2272;49.226;8.108;2022-07-29T04:40:13;4.50;;;4.10;;
4519;SDS011;2272;49.226;8.108;2022-07-29T04:42:40;6.90;;;3.40;;
4519;SDS011;2272;49.226;8.108;2022-07-29T04:45:07;8.07;;;3.80;;
4519;SDS011;2272;49.226;8.108;2022-07-29T04:47:36;5.63;;;4.07;;
4519;SDS011;2272;49.226;8.108;2022-07-29T04:50:03;3.97;;;3.67;;
4519;SDS011;2272;49.226;8.108;2022-07-29T04:52:30;9.57;;;4.07;;
4519;SDS011;2272;49.226;8.108;2022-07-29T04:54:57;4.63;;;4.23;;
4519;SDS011;2272;49.226;8.108;2022-07-29T04:57:24;3.43;;;3.23;;
4519;SDS011;2272;49.226;8.108;2022-07-29T04:59:51;4.10;;;3.80;;
4519;SDS011;2272;49.226;8.108;2022-07-29T05:02:17;5.90;;;3.97;;
4519;SDS011;2272;49.226;8.108;2022-07-29T05:04:45;4.63;;;3.90;;
4519;SDS011;2272;49.226;8.108;2022-07-29T05:07:12;4.67;;;4.13;;
4519;SDS011;2272;49.226;8.108;2022-07-29T05:09:39;4.40;;;4.00;;
4519;SDS011;2272;49.226;8.108;2022-07-29T05:12:06;8.00;;;5.30;;
4519;SDS011;2272;49.226;8.108;2022-07-29T05:14:33;9.57;;;5.50;;
4519;SDS011;2272;49.226;8.108;2022-07-29T05:16:59;6.27;;;5.60;;
4519;SDS011;2272;49.226;8.108;2022-07-29T05:19:26;5.27;;;4.80;;
4519;SDS011;2272;49.226;8.108;2022-07-29T05:21:54;6.67;;;5.43;;
4519;SDS011;2272;49.226;8.108;2022-07-29T05:24:21;4.90;;;4.50;;
4519;SDS011;2272;49.226;8.108;2022-07-29T05:26:47;10.90;;;4.50;;
4519;SDS011;2272;49.226;8.108;2022-07-29T05:29:14;7.10;;;4.13;;
4519;SDS011;2272;49.226;8.108;2022-07-29T05:31:41;5.50;;;4.13;;
4519;SDS011;2272;49.226;8.108;2022-07-29T05:34:07;3.87;;;3.60;;
4519;SDS011;2272;49.226;8.108;2022-07-29T05:36:34;4.40;;;4.10;;
4519;SDS011;2272;49.226;8.108;2022-07-29T05:39:03;5.20;;;3.73;;
4519;SDS011;2272;49.226;8.108;2022-07-29T05:41:31;4.17;;;3.80;;
4519;SDS011;2272;49.226;8.108;2022-07-29T05:43:58;4.10;;;3.67;;
4519;SDS011;2272;49.226;8.108;2022-07-29T05:46:24;8.60;;;7.00;;
4519;SDS011;2272;49.226;8.108;2022-07-29T05:48:51;5.33;;;4.83;;
4519;SDS011;2272;49.226;8.108;2022-07-29T05:51:18;6.23;;;4.23;;
4519;SDS011;2272;49.226;8.108;2022-07-29T05:53:44;5.77;;;4.33;;
4519;SDS011;2272;49.226;8.108;2022-07-29T05:56:13;4.13;;;3.77;;
4519;SDS011;2272;49.226;8.108;2022-07-29T05:58:39;5.13;;;4.13;;
4519;SDS011;2272;49.226;8.108;2022-07-29T06:01:06;4.40;;;4.00;;
4519;SDS011;2272;49.226;8.108;2022-07-29T06:03:33;4.43;;;3.27;;
4519;SDS011;2272;49.226;8.108;2022-07-29T06:05:59;3.37;;;3.07;;
4519;SDS011;2272;49.226;8.108;2022-07-29T06:08:26;3.27;;;2.67;;
4519;SDS011;2272;49.226;8.108;2022-07-29T06:10:53;3.03;;;2.83;;
4519;SDS011;2272;49.226;8.108;2022-07-29T06:13:21;2.93;;;2.73;;
4519;SDS011;2272;49.226;8.108;2022-07-29T06:15:48;2.77;;;2.57;;
4519;SDS011;2272;49.226;8.108;2022-07-29T06:18:14;4.23;;;2.97;;
4519;SDS011;2272;49.226;8.108;2022-07-29T06:20:41;3.13;;;2.83;;
4519;SDS011;2272;49.226;8.108;2022-07-29T06:23:08;5.10;;;3.33;;
4519;SDS011;2272;49.226;8.108;2022-07-29T06:25:35;5.03;;;2.77;;
4519;SDS011;2272;49.226;8.108;2022-07-29T06:28:02;3.57;;;2.23;;
4519;SDS011;2272;49.226;8.108;2022-07-29T06:30:31;5.47;;;2.97;;
4519;SDS011;2272;49.226;8.108;2022-07-29T06:32:57;6.63;;;3.10;;
4519;SDS011;2272;49.226;8.108;2022-07-29T06:35:25;4.33;;;3.33;;
4519;SDS011;2272;49.226;8.108;2022-07-29T06:37:51;2.70;;;2.50;;
4519;SDS011;2272;49.226;8.108;2022-07-29T06:40:18;3.50;;;2.30;;
4519;SDS011;2272;49.226;8.108;2022-07-29T06:43:05;4.23;;;3.13;;
4519;SDS011;2272;49.226;8.108;2022-07-29T06:45:34;5.50;;;2.80;;
4519;SDS011;2272;49.226;8.108;2022-07-29T06:48:01;4.67;;;2.90;;
4519;SDS011;2272;49.226;8.108;2022-07-29T06:50:27;4.03;;;3.17;;
4519;SDS011;2272;49.226;8.108;2022-07-29T06:52:54;2.90;;;2.70;;
4519;SDS011;2272;49.226;8.108;2022-07-29T06:55:21;3.67;;;3.00;;
4519;SDS011;2272;49.226;8.108;2022-07-29T06:57:48;5.13;;;2.80;;
4519;SDS011;2272;49.226;8.108;2022-07-29T07:00:14;4.53;;;2.30;;
4519;SDS011;2272;49.226;8.108;2022-07-29T07:02:43;5.97;;;3.33;;
4519;SDS011;2272;49.226;8.108;2022-07-29T07:05:09;8.20;;;3.50;;
4519;SDS011;2272;49.226;8.108;2022-07-29T07:07:36;10.10;;;2.87;;
4519;SDS011;2272;49.226;8.108;2022-07-29T07:10:03;4.63;;;3.47;;
4519;SDS011;2272;49.226;8.108;2022-07-29T07:12:30;3.10;;;2.80;;
4519;SDS011;2272;49.226;8.108;2022-07-29T07:14:57;4.30;;;3.10;;
4519;SDS011;2272;49.226;8.108;2022-07-29T07:17:24;9.20;;;3.80;;
4519;SDS011;2272;49.226;8.108;2022-07-29T07:19:52;9.20;;;2.80;;
4519;SDS011;2272;49.226;8.108;2022-07-29T07:22:19;2.73;;;2.63;;
4519;SDS011;2272;49.226;8.108;2022-07-29T07:24:45;5.73;;;3.17;;
4519;SDS011;2272;49.226;8.108;2022-07-29T07:27:12;6.50;;;3.70;;
4519;SDS011;2272;49.226;8.108;2022-07-29T07:29:39;8.80;;;3.07;;
4519;SDS011;2272;49.226;8.108;2022-07-29T07:32:06;2.97;;;2.73;;
4519;SDS011;2272;49.226;8.108;2022-07-29T07:34:33;4.60;;;3.33;;
4519;SDS011;2272;49.226;8.108;2022-07-29T07:37:01;3.50;;;3.20;;
4519;SDS011;2272;49.226;8.108;2022-07-29T07:39:28;5.77;;;3.40;;
4519;SDS011;2272;49.226;8.108;2022-07-29T07:41:54;3.40;;;3.10;;
4519;SDS011;2272;49.226;8.108;2022-07-29T07:44:21;3.97;;;3.60;;
4519;SDS011;2272;49.226;8.108;2022-07-29T07:46:48;4.63;;;3.90;;
4519;SDS011;2272;49.226;8.108;2022-07-29T07:49:14;3.47;;;2.80;;
4519;SDS011;2272;49.226;8.108;2022-07-29T07:51:41;6.00;;;3.70;;
4519;SDS011;2272;49.226;8.108;2022-07-29T07:54:09;7.40;;;3.80;;
4519;SDS011;2272;49.226;8.108;2022-07-29T07:56:36;4.10;;;3.30;;
4519;SDS011;2272;49.226;8.108;2022-07-29T07:59:02;12.10;;;3.70;;
4519;SDS011;2272;49.226;8.108;2022-07-29T08:01:29;3.80;;;3.40;;
4519;SDS011;2272;49.226;8.108;2022-07-29T08:03:56;7.90;;;3.20;;
4519;SDS011;2272;49.226;8.108;2022-07-29T08:06:22;3.23;;;3.00;;
4519;SDS011;2272;49.226;8.108;2022-07-29T08:08:50;3.23;;;3.03;;
4519;SDS011;2272;49.226;8.108;2022-07-29T08:11:18;5.97;;;3.07;;
4519;SDS011;2272;49.226;8.108;2022-07-29T08:13:46;8.83;;;3.30;;
4519;SDS011;2272;49.226;8.108;2022-07-29T08:16:13;6.37;;;3.20;;
4519;SDS011;2272;49.226;8.108;2022-07-29T08:18:42;3.87;;;3.30;;
4519;SDS011;2272;49.226;8.108;2022-07-29T08:21:09;3.60;;;3.30;;
4519;SDS011;2272;49.226;8.108;2022-07-29T08:23:36;5.40;;;4.10;;
4519;SDS011;2272;49.226;8.108;2022-07-29T08:26:04;7.07;;;3.17;;
4519;SDS011;2272;49.226;8.108;2022-07-29T08:28:36;3.50;;;3.20;;
4519;SDS011;2272;49.226;8.108;2022-07-29T08:31:04;3.73;;;3.13;;
4519;SDS011;2272;49.226;8.108;2022-07-29T08:33:31;6.17;;;3.17;;
4519;SDS011;2272;49.226;8.108;2022-07-29T08:35:58;5.90;;;3.10;;
4519;SDS011;2272;49.226;8.108;2022-07-29T08:38:25;3.50;;;3.20;;
4519;SDS011;2272;49.226;8.108;2022-07-29T08:40:52;4.70;;;3.33;;
4519;SDS011;2272;49.226;8.108;2022-07-29T08:43:19;5.47;;;4.33;;
4519;SDS011;2272;49.226;8.108;2022-07-29T08:45:48;13.33;;;4.00;;
4519;SDS011;2272;49.226;8.108;2022-07-29T08:48:17;6.33;;;3.80;;
4519;SDS011;2272;49.226;8.108;2022-07-29T08:50:45;4.00;;;3.10;;
4519;SDS011;2272;49.226;8.108;2022-07-29T08:53:13;5.57;;;3.23;;
4519;SDS011;2272;49.226;8.108;2022-07-29T08:55:41;3.50;;;3.20;;
4519;SDS011;2272;49.226;8.108;2022-07-29T08:58:09;3.93;;;3.53;;
4519;SDS011;2272;49.226;8.108;2022-07-29T09:00:37;3.37;;;2.90;;
4519;SDS011;2272;49.226;8.108;2022-07-29T09:03:09;3.73;;;3.37;;
4519;SDS011;2272;49.226;8.108;2022-07-29T09:05:38;6.83;;;4.20;;
4519;SDS011;2272;49.226;8.108;2022-07-29T09:08:08;4.00;;;3.70;;
4519;SDS011;2272;49.226;8.108;2022-07-29T09:10:35;3.53;;;3.27;;
4519;SDS011;2272;49.226;8.108;2022-07-29T09:13:02;3.80;;;3.47;;
4519;SDS011;2272;49.226;8.108;2022-07-29T09:15:30;2.60;;;2.40;;
4519;SDS011;2272;49.226;8.108;2022-07-29T09:17:56;4.33;;;2.93;;
4519;SDS011;2272;49.226;8.108;2022-07-29T09:20:26;3.17;;;2.97;;
4519;SDS011;2272;49.226;8.108;2022-07-29T09:23:14;3.00;;;2.73;;
4519;SDS011;2272;49.226;8.108;2022-07-29T09:25:40;7.60;;;3.20;;
4519;SDS011;2272;49.226;8.108;2022-07-29T09:28:08;3.03;;;2.73;;
4519;SDS011;2272;49.226;8.108;2022-07-29T09:30:36;3.37;;;2.83;;
4519;SDS011;2272;49.226;8.108;2022-07-29T09:33:16;18.53;;;4.07;;
4519;SDS011;2272;49.226;8.108;2022-07-29T09:35:44;2.20;;;2.10;;
4519;SDS011;2272;49.226;8.108;2022-07-29T09:38:11;3.37;;;3.07;;
4519;SDS011;2272;49.226;8.108;2022-07-29T09:40:37;3.43;;;3.00;;
4519;SDS011;2272;49.226;8.108;2022-07-29T09:43:09;4.67;;;3.30;;
4519;SDS011;2272;49.226;8.108;2022-07-29T09:45:36;6.17;;;3.13;;
4519;SDS011;2272;49.226;8.108;2022-07-29T09:48:12;3.50;;;3.03;;
4519;SDS011;2272;49.226;8.108;2022-07-29T09:50:41;3.23;;;2.93;;
4519;SDS011;2272;49.226;8.108;2022-07-29T09:53:10;3.33;;;3.17;;
4519;SDS011;2272;49.226;8.108;2022-07-29T09:55:46;6.20;;;3.33;;
4519;SDS011;2272;49.226;8.108;2022-07-29T09:58:15;2.80;;;2.60;;
4519;SDS011;2272;49.226;8.108;2022-07-29T10:00:43;3.50;;;3.20;;
4519;SDS011;2272;49.226;8.108;2022-07-29T10:03:11;3.40;;;3.20;;
4519;SDS011;2272;49.226;8.108;2022-07-29T10:05:38;7.90;;;3.43;;
4519;SDS011;2272;49.226;8.108;2022-07-29T10:08:07;4.20;;;2.53;;
4519;SDS011;2272;49.226;8.108;2022-07-29T10:10:37;3.40;;;3.10;;
4519;SDS011;2272;49.226;8.108;2022-07-29T10:13:06;7.20;;;3.10;;
4519;SDS011;2272;49.226;8.108;2022-07-29T10:15:34;6.30;;;3.40;;
4519;SDS011;2272;49.226;8.108;2022-07-29T10:18:04;3.50;;;3.30;;
4519;SDS011;2272;49.226;8.108;2022-07-29T10:20:31;6.43;;;2.70;;
4519;SDS011;2272;49.226;8.108;2022-07-29T10:22:58;2.83;;;2.73;;
4519;SDS011;2272;49.226;8.108;2022-07-29T10:25:25;16.93;;;2.80;;
4519;SDS011;2272;49.226;8.108;2022-07-29T10:27:54;3.17;;;2.97;;
4519;SDS011;2272;49.226;8.108;2022-07-29T10:30:21;2.70;;;2.60;;
4519;SDS011;2272;49.226;8.108;2022-07-29T10:32:53;2.50;;;2.40;;
4519;SDS011;2272;49.226;8.108;2022-07-29T10:35:35;4.97;;;2.90;;
4519;SDS011;2272;49.226;8.108;2022-07-29T10:41:18;4.00;;;2.57;;
4519;SDS011;2272;49.226;8.108;2022-07-29T10:43:57;2.67;;;2.50;;
4519;SDS011;2272;49.226;8.108;2022-07-29T10:46:26;3.23;;;2.60;;
4519;SDS011;2272;49.226;8.108;2022-07-29T10:49:06;5.50;;;2.80;;
4519;SDS011;2272;49.226;8.108;2022-07-29T10:54:36;5.37;;;2.60;;
4519;SDS011;2272;49.226;8.108;2022-07-29T10:57:26;6.10;;;2.60;;
4519;SDS011;2272;49.226;8.108;2022-07-29T11:02:58;9.60;;;2.80;;
4519;SDS011;2272;49.226;8.108;2022-07-29T11:05:26;3.17;;;2.80;;
4519;SDS011;2272;49.226;8.108;2022-07-29T11:10:48;5.57;;;3.13;;
4519;SDS011;2272;49.226;8.108;2022-07-29T11:16:17;14.13;;;3.73;;
4519;SDS011;2272;49.226;8.108;2022-07-29T11:21:48;3.03;;;2.83;;
4519;SDS011;2272;49.226;8.108;2022-07-29T11:24:16;16.67;;;3.07;;
4519;SDS011;2272;49.226;8.108;2022-07-29T11:26:45;4.20;;;2.50;;
4519;SDS011;2272;49.226;8.108;2022-07-29T11:29:49;3.40;;;2.63;;
4519;SDS011;2272;49.226;8.108;2022-07-29T11:32:24;3.17;;;2.87;;
4519;SDS011;2272;49.226;8.108;2022-07-29T11:35:11;4.07;;;2.90;;
4519;SDS011;2272;49.226;8.108;2022-07-29T11:37:43;7.13;;;3.30;;
4519;SDS011;2272;49.226;8.108;2022-07-29T11:40:14;4.63;;;2.73;;
4519;SDS011;2272;49.226;8.108;2022-07-29T11:42:43;3.83;;;3.53;;
4519;SDS011;2272;49.226;8.108;2022-07-29T11:45:14;4.00;;;2.87;;
4519;SDS011;2272;49.226;8.108;2022-07-29T11:47:58;4.73;;;3.57;;
4519;SDS011;2272;49.226;8.108;2022-07-29T11:50:34;3.10;;;2.87;;
4519;SDS011;2272;49.226;8.108;2022-07-29T11:53:05;3.60;;;2.70;;
4519;SDS011;2272;49.226;8.108;2022-07-29T11:55:37;3.03;;;2.83;;
4519;SDS011;2272;49.226;8.108;2022-07-29T11:58:05;4.53;;;3.60;;
4519;SDS011;2272;49.226;8.108;2022-07-29T12:00:33;4.87;;;2.97;;
4519;SDS011;2272;49.226;8.108;2022-07-29T12:03:05;2.70;;;2.60;;
4519;SDS011;2272;49.226;8.108;2022-07-29T12:05:37;3.50;;;2.27;;
4519;SDS011;2272;49.226;8.108;2022-07-29T12:08:09;4.63;;;2.87;;
4519;SDS011;2272;49.226;8.108;2022-07-29T12:10:38;2.90;;;2.70;;
4519;SDS011;2272;49.226;8.108;2022-07-29T12:13:06;2.97;;;2.63;;
4519;SDS011;2272;49.226;8.108;2022-07-29T12:15:34;2.67;;;2.30;;
4519;SDS011;2272;49.226;8.108;2022-07-29T12:18:13;2.53;;;2.30;;
4519;SDS011;2272;49.226;8.108;2022-07-29T12:20:41;6.10;;;2.40;;
4519;SDS011;2272;49.226;8.108;2022-07-29T12:23:08;2.77;;;2.53;;
4519;SDS011;2272;49.226;8.108;2022-07-29T12:25:36;2.30;;;1.93;;
4519;SDS011;2272;49.226;8.108;2022-07-29T12:28:04;2.40;;;2.20;;
4519;SDS011;2272;49.226;8.108;2022-07-29T12:30:37;4.17;;;2.73;;
4519;SDS011;2272;49.226;8.108;2022-07-29T12:33:18;4.57;;;2.40;;
4519;SDS011;2272;49.226;8.108;2022-07-29T12:35:47;2.77;;;2.37;;
4519;SDS011;2272;49.226;8.108;2022-07-29T12:38:16;1.90;;;1.80;;
4519;SDS011;2272;49.226;8.108;2022-07-29T12:40:44;2.07;;;1.97;;
4519;SDS011;2272;49.226;8.108;2022-07-29T12:43:13;2.43;;;2.33;;
4519;SDS011;2272;49.226;8.108;2022-07-29T12:45:41;5.80;;;2.30;;
4519;SDS011;2272;49.226;8.108;2022-07-29T12:48:09;2.97;;;2.33;;
4519;SDS011;2272;49.226;8.108;2022-07-29T12:50:51;3.37;;;2.30;;
4519;SDS011;2272;49.226;8.108;2022-07-29T12:53:22;5.03;;;3.03;;
4519;SDS011;2272;49.226;8.108;2022-07-29T12:55:50;5.63;;;3.30;;
4519;SDS011;2272;49.226;8.108;2022-07-29T12:58:25;4.50;;;2.40;;
4519;SDS011;2272;49.226;8.108;2022-07-29T13:01:00;3.03;;;2.17;;
4519;SDS011;2272;49.226;8.108;2022-07-29T13:03:42;7.67;;;2.40;;
4519;SDS011;2272;49.226;8.108;2022-07-29T13:09:05;3.23;;;2.00;;
4519;SDS011;2272;49.226;8.108;2022-07-29T13:11:33;2.93;;;2.03;;
4519;SDS011;2272;49.226;8.108;2022-07-29T13:14:02;3.03;;;2.17;;
4519;SDS011;2272;49.226;8.108;2022-07-29T13:16:32;1.80;;;1.70;;
4519;SDS011;2272;49.226;8.108;2022-07-29T13:19:05;2.03;;;1.90;;
4519;SDS011;2272;49.226;8.108;2022-07-29T13:21:34;3.60;;;1.90;;
4519;SDS011;2272;49.226;8.108;2022-07-29T13:24:04;1.87;;;1.70;;
4519;SDS011;2272;49.226;8.108;2022-07-29T13:26:31;2.37;;;1.83;;
4519;SDS011;2272;49.226;8.108;2022-07-29T13:28:58;1.63;;;1.50;;
4519;SDS011;2272;49.226;8.108;2022-07-29T13:31:25;2.83;;;2.20;;
4519;SDS011;2272;49.226;8.108;2022-07-29T13:33:52;1.90;;;1.80;;
4519;SDS011;2272;49.226;8.108;2022-07-29T13:36:19;6.00;;;1.97;;
4519;SDS011;2272;49.226;8.108;2022-07-29T13:38:47;5.13;;;1.93;;
4519;SDS011;2272;49.226;8.108;2022-07-29T13:41:13;3.17;;;1.70;;
4519;SDS011;2272;49.226;8.108;2022-07-29T13:43:40;6.20;;;1.70;;
4519;SDS011;2272;49.226;8.108;2022-07-29T13:46:07;1.90;;;1.80;;
4519;SDS011;2272;49.226;8.108;2022-07-29T13:48:33;5.40;;;1.83;;
4519;SDS011;2272;49.226;8.108;2022-07-29T13:51:00;3.20;;;1.83;;
4519;SDS011;2272;49.226;8.108;2022-07-29T13:53:27;4.00;;;1.67;;
4519;SDS011;2272;49.226;8.108;2022-07-29T13:55:55;2.90;;;2.00;;
4519;SDS011;2272;49.226;8.108;2022-07-29T13:58:22;1.93;;;1.70;;
4519;SDS011;2272;49.226;8.108;2022-07-29T14:00:49;1.70;;;1.60;;
4519;SDS011;2272;49.226;8.108;2022-07-29T14:03:16;3.83;;;1.60;;
4519;SDS011;2272;49.226;8.108;2022-07-29T14:05:42;3.03;;;1.20;;
4519;SDS011;2272;49.226;8.108;2022-07-29T14:08:09;8.00;;;2.03;;
4519;SDS011;2272;49.226;8.108;2022-07-29T14:10:36;5.27;;;1.70;;
4519;SDS011;2272;49.226;8.108;2022-07-29T14:13:04;1.70;;;1.60;;
4519;SDS011;2272;49.226;8.108;2022-07-29T14:15:30;10.87;;;1.77;;
4519;SDS011;2272;49.226;8.108;2022-07-29T14:17:57;9.60;;;1.60;;
4519;SDS011;2272;49.226;8.108;2022-07-29T14:20:24;3.10;;;2.80;;
4519;SDS011;2272;49.226;8.108;2022-07-29T14:22:50;2.10;;;1.90;;
4519;SDS011;2272;49.226;8.108;2022-07-29T14:25:17;9.63;;;1.90;;
4519;SDS011;2272;49.226;8.108;2022-07-29T14:27:44;7.47;;;2.40;;
4519;SDS011;2272;49.226;8.108;2022-07-29T14:30:12;11.40;;;1.60;;
4519;SDS011;2272;49.226;8.108;2022-07-29T14:32:39;3.97;;;1.90;;
4519;SDS011;2272;49.226;8.108;2022-07-29T14:35:06;1.67;;;1.50;;
4519;SDS011;2272;49.226;8.108;2022-07-29T14:37:34;2.10;;;1.30;;
4519;SDS011;2272;49.226;8.108;2022-07-29T14:40:01;1.93;;;1.50;;
4519;SDS011;2272;49.226;8.108;2022-07-29T14:42:29;1.53;;;1.23;;
4519;SDS011;2272;49.226;8.108;2022-07-29T14:44:56;1.73;;;1.60;;
4519;SDS011;2272;49.226;8.108;2022-07-29T14:47:24;6.77;;;2.30;;
4519;SDS011;2272;49.226;8.108;2022-07-29T14:49:51;2.83;;;1.93;;
4519;SDS011;2272;49.226;8.108;2022-07-29T14:52:18;1.93;;;1.40;;
4519;SDS011;2272;49.226;8.108;2022-07-29T14:54:44;1.77;;;1.67;;
4519;SDS011;2272;49.226;8.108;2022-07-29T14:57:11;4.77;;;1.87;;
4519;SDS011;2272;49.226;8.108;2022-07-29T14:59:38;1.67;;;1.50;;
4519;SDS011;2272;49.226;8.108;2022-07-29T15:02:05;2.20;;;1.90;;
4519;SDS011;2272;49.226;8.108;2022-07-29T15:04:33;2.10;;;1.13;;
4519;SDS011;2272;49.226;8.108;2022-07-29T15:06:59;1.60;;;1.50;;
4519;SDS011;2272;49.226;8.108;2022-07-29T15:09:26;1.43;;;1.33;;
4519;SDS011;2272;49.226;8.108;2022-07-29T15:11:54;2.13;;;1.47;;
4519;SDS011;2272;49.226;8.108;2022-07-29T15:14:21;3.60;;;1.83;;
4519;SDS011;2272;49.226;8.108;2022-07-29T15:16:48;2.13;;;1.50;;
4519;SDS011;2272;49.226;8.108;2022-07-29T15:19:14;6.73;;;1.50;;
4519;SDS011;2272;49.226;8.108;2022-07-29T15:21:42;3.13;;;1.80;;
4519;SDS011;2272;49.226;8.108;2022-07-29T15:24:09;2.73;;;1.60;;
4519;SDS011;2272;49.226;8.108;2022-07-29T15:26:36;7.03;;;1.83;;
4519;SDS011;2272;49.226;8.108;2022-07-29T15:29:02;3.50;;;1.60;;
4519;SDS011;2272;49.226;8.108;2022-07-29T15:31:29;3.10;;;2.10;;
4519;SDS011;2272;49.226;8.108;2022-07-29T15:33:56;1.73;;;1.57;;
4519;SDS011;2272;49.226;8.108;2022-07-29T15:36:23;2.57;;;1.50;;
4519;SDS011;2272;49.226;8.108;2022-07-29T15:38:52;4.70;;;1.30;;
4519;SDS011;2272;49.226;8.108;2022-07-29T15:41:19;2.87;;;1.80;;
4519;SDS011;2272;49.226;8.108;2022-07-29T15:43:46;2.70;;;1.80;;
4519;SDS011;2272;49.226;8.108;2022-07-29T15:46:14;2.20;;;1.67;;
4519;SDS011;2272;49.226;8.108;2022-07-29T15:48:59;1.93;;;1.27;;